Terminal Aerodrome Forecast
Issued by NWS Brownsville, TX

Current Version | Previous Version | Text Only | Print | Product List | Glossary Off
Versions: 1 2 3 4 5 6 7 8 9 10 11 12 13 14 15 16 17 18

000
FTUS44 KBRO 010500
TAFHRL
TAF
KHRL 010520Z 0106/0206 32004KT P6SM SKC
     FM011900 07011KT P6SM SCT250
     FM012200 08014KT P6SM SCT250=

USA.gov is the U.S. government's official web portal to all federal, state and local government web resources and services.